Terminal Aerodrome Forecast
Issued by NWS Pittsburgh, PA

Current Version | Previous Version | Text Only | Print | Product List | Glossary Off
Versions: 1 2 3 4 5 6 7 8 9 10 11 12 13 14 15 16 17 18 19 20 21 22 23 24 25 26 27

000
FTUS41 KPBZ 160304 AAA
TAFPIT
TAF AMD
KPIT 160304Z 1603/1706 07004KT P6SM OVC200
     FM161600 16010KT P6SM BKN050 PROB30 1622/1702 P6SM -RA BKN035=

USA.gov is the U.S. government's official web portal to all federal, state and local government web resources and services.